General Aviation Weather

Text Reports

Enter one or more of the following location identifiers separated by a space:

Zip Code, Four-Character ICAO or Three-Character IATA airport codes.

METAR - Aviation Routine Weather Report
LLET - Eilat,
Updated at 11:50 AM GMT on July 28, 2016 (2:50 PM IDT):
METAR LLET 281150Z 03019KT CAVOK 40/13 Q1002
TAF - Terminal Area Forecast
LLET - Eilat,
Updated at 11:50 AM GMT on July 28, 2016 (2:50 PM IDT):
TAF LLET 281109Z 2812/2912 02018KT CAVOK
    TEMPO 2812/2816 02020G30KT
    BECMG 2820/2822 36010KT
    BECMG 2906/2908 02016KT
    TX41/2813Z TN29/2904Z=
Decoded:
ID: LLET   Elat/J. Hozman, IS
REPORT TIME: 28 11: 9
VALID TIME: 28 July AT 12:00Z to 29 July AT 12:00Z.
INITIAL WX
   WINDS: 20 AT 18
   WEATHER: CAVOK
TEMPORARY WX FROM 12Z TO 16Z
   WINDS: 20 AT 20 GUST 30
WX BECOMING FROM 20Z TO 22Z
   WINDS: 360 AT 10
WX BECOMING FROM 06Z TO 08Z
   WINDS: 20 AT 16
   COMMENTS: TX41/2813Z TN29/2904Z= 

CORRECTION
INITIAL WX
   WEATHER: TAF_MYNN
   COMMENTS: 281000Z 2812/2912 VRB02KT 9999 FEW015CB 
WX BECOMING FROM 18Z TO 20Z
   WINDS: 100 AT 12
   COMMENTS: = 

PIREP - Pilot Weather Report
LLET - Eilat,
Updated at 11:50 AM GMT on July 28, 2016 (2:50 PM IDT):
No PIREP is currently available for this location.
AIRMET - Airmens Meteorological Information
LLET - Eilat,
Updated at 11:50 AM GMT on July 28, 2016 (2:50 PM IDT):
No AIRMET is currently available for this location.
SIGMET - Significant Meteorological Information
LLET - Eilat,
Updated at 11:50 AM GMT on July 28, 2016 (2:50 PM IDT):
No SIGMET is currently available for this location.
NOTAM - Notice to Airmen
LLET - Eilat,
Updated at 11:50 AM GMT on July 28, 2016 (2:50 PM IDT):
No NOTAM is currently available for this location.
Forecast Area
LLET - Eilat,
Updated at 11:50 AM GMT on July 28, 2016 (2:50 PM IDT):
No NOTAM is currently available for this location.
Aviation Weather Maps